createdAt,value
2023-04-16T00:02:16.719Z,11.40
2023-04-16T00:04:44.856Z,11.23
2023-04-16T00:07:13.008Z,11.57
2023-04-16T00:09:42.360Z,11.77
2023-04-16T00:12:10.565Z,10.57
2023-04-16T00:14:38.715Z,10.63
2023-04-16T00:17:06.685Z,11.33
2023-04-16T00:19:34.613Z,11.40
2023-04-16T00:22:02.565Z,11.40
2023-04-16T00:24:30.532Z,11.40
2023-04-16T00:26:59.818Z,11.33
2023-04-16T00:29:28.808Z,11.10
2023-04-16T00:31:56.797Z,11.27
2023-04-16T00:34:25.240Z,11.37
2023-04-16T00:36:53.195Z,11.30
2023-04-16T00:39:21.133Z,12.00
2023-04-16T00:41:49.220Z,11.40
2023-04-16T00:44:18.496Z,11.53
2023-04-16T00:46:47.214Z,10.37
2023-04-16T00:49:15.887Z,10.97
2023-04-16T00:51:43.853Z,10.73
2023-04-16T00:54:11.911Z,11.20
2023-04-16T00:56:40.815Z,10.63
2023-04-16T00:59:08.810Z,10.67
2023-04-16T01:01:38.226Z,10.07
2023-04-16T01:04:07.498Z,9.63
2023-04-16T01:06:35.491Z,10.80
2023-04-16T01:09:03.877Z,9.17
2023-04-16T01:11:31.975Z,9.23
2023-04-16T01:13:59.941Z,9.60
2023-04-16T01:16:27.911Z,8.73
2023-04-16T01:18:57.256Z,10.20
2023-04-16T01:21:27.422Z,8.93
2023-04-16T01:23:55.572Z,9.60
2023-04-16T01:26:23.493Z,9.43
2023-04-16T01:28:51.365Z,9.27
2023-04-16T01:31:19.235Z,9.97
2023-04-16T01:34:06.504Z,9.10
2023-04-16T01:36:38.364Z,8.47
2023-04-16T01:39:06.415Z,8.80
2023-04-16T01:41:34.363Z,8.37
2023-04-16T01:44:02.296Z,8.93
2023-04-16T01:46:32.104Z,8.50
2023-04-16T01:49:00.668Z,8.73
2023-04-16T01:51:29.023Z,9.00
2023-04-16T01:53:58.451Z,8.07
2023-04-16T01:56:26.548Z,8.83
2023-04-16T01:58:54.746Z,8.60
2023-04-16T02:01:23.559Z,8.97
2023-04-16T02:03:52.945Z,8.47
2023-04-16T02:06:21.281Z,8.30
2023-04-16T02:08:49.283Z,8.43
2023-04-16T02:11:18.512Z,8.73
2023-04-16T02:13:47.210Z,8.80
2023-04-16T02:16:15.629Z,9.10
2023-04-16T02:19:09.876Z,9.00
2023-04-16T02:21:39.053Z,9.67
2023-04-16T02:24:07.134Z,8.93
2023-04-16T02:26:37.385Z,8.97
2023-04-16T02:29:10.761Z,9.03
2023-04-16T02:31:44.405Z,9.77
2023-04-16T02:34:13.856Z,10.00
2023-04-16T02:36:43.363Z,10.17
2023-04-16T02:39:11.486Z,10.27
2023-04-16T02:41:40.961Z,9.20
2023-04-16T02:44:08.998Z,10.10
2023-04-16T02:46:36.934Z,10.10
2023-04-16T02:49:05.020Z,10.27
2023-04-16T02:51:33.255Z,10.30
2023-04-16T02:54:01.150Z,10.27
2023-04-16T02:56:29.014Z,11.20
2023-04-16T02:58:58.274Z,10.53
2023-04-16T03:01:26.275Z,9.47
2023-04-16T03:03:54.234Z,10.33
2023-04-16T03:06:22.170Z,9.97
2023-04-16T03:08:50.107Z,9.70
2023-04-16T03:11:18.061Z,10.13
2023-04-16T03:13:46.068Z,9.63
2023-04-16T03:16:15.527Z,10.30
2023-04-16T03:18:43.493Z,10.10
2023-04-16T03:21:11.611Z,10.77
2023-04-16T03:23:39.618Z,10.87
2023-04-16T03:26:07.522Z,10.73
2023-04-16T03:28:35.855Z,11.13
2023-04-16T03:31:05.167Z,11.17
2023-04-16T03:33:34.707Z,10.87
2023-04-16T03:36:03.390Z,11.53
2023-04-16T03:38:32.387Z,11.27
2023-04-16T03:41:00.924Z,10.87
2023-04-16T03:43:31.556Z,10.43
2023-04-16T03:45:59.624Z,10.87
2023-04-16T03:48:27.643Z,11.33
2023-04-16T03:50:56.903Z,10.77
2023-04-16T03:53:25.226Z,11.27
2023-04-16T03:55:53.667Z,11.20
2023-04-16T03:58:22.797Z,11.30
2023-04-16T04:00:54.816Z,11.17
2023-04-16T04:03:23.180Z,11.60
2023-04-16T04:05:51.619Z,11.47
2023-04-16T04:08:27.430Z,10.97
2023-04-16T04:10:55.538Z,11.30
2023-04-16T04:13:24.676Z,11.73
2023-04-16T04:15:53.614Z,12.00
2023-04-16T04:18:22.364Z,11.30
2023-04-16T04:20:50.358Z,11.93
2023-04-16T04:23:20.908Z,11.57
2023-04-16T04:25:50.797Z,10.60
2023-04-16T04:28:18.834Z,10.67
2023-04-16T04:30:46.825Z,10.60
2023-04-16T04:33:15.048Z,10.47
2023-04-16T04:35:43.495Z,10.53
2023-04-16T04:38:12.054Z,10.57
2023-04-16T04:40:41.422Z,10.40
2023-04-16T04:43:11.421Z,10.27
2023-04-16T04:45:39.485Z,10.90
2023-04-16T04:48:07.809Z,11.17
2023-04-16T04:50:36.190Z,10.37
2023-04-16T04:53:09.831Z,11.77
2023-04-16T04:55:38.234Z,11.43
2023-04-16T04:58:06.999Z,11.27
2023-04-16T05:00:37.390Z,11.73
2023-04-16T05:03:07.249Z,10.93
2023-04-16T05:05:35.131Z,12.23
2023-04-16T05:08:03.040Z,11.43
2023-04-16T05:10:31.047Z,10.77
2023-04-16T05:12:59.024Z,11.67
2023-04-16T05:15:26.912Z,11.33
2023-04-16T05:17:56.725Z,10.73
2023-04-16T05:20:25.075Z,11.47
2023-04-16T05:22:52.991Z,12.70
2023-04-16T05:25:21.004Z,13.47
2023-04-16T05:27:48.838Z,15.63
2023-04-16T05:30:16.811Z,16.20
2023-04-16T05:32:44.765Z,17.27
2023-04-16T05:35:16.705Z,17.53
2023-04-16T05:37:45.334Z,17.50
2023-04-16T05:40:15.621Z,17.47
2023-04-16T05:42:43.565Z,17.13
2023-04-16T05:45:12.105Z,16.73
2023-04-16T05:47:40.022Z,18.20
2023-04-16T05:50:08.753Z,18.57
2023-04-16T05:52:37.982Z,18.97
2023-04-16T05:55:07.131Z,19.37
2023-04-16T05:57:35.053Z,19.10
2023-04-16T06:00:03.694Z,19.20
2023-04-16T06:02:40.336Z,18.83
2023-04-16T06:05:08.982Z,19.53
2023-04-16T06:07:38.166Z,19.63
2023-04-16T06:10:07.024Z,20.00
2023-04-16T06:12:35.044Z,21.50
2023-04-16T06:15:03.565Z,19.47
2023-04-16T06:17:31.596Z,19.93
2023-04-16T06:19:59.873Z,20.67
2023-04-16T06:22:28.029Z,19.63
2023-04-16T06:24:57.355Z,20.47
2023-04-16T06:27:25.883Z,17.87
2023-04-16T06:29:53.952Z,20.30
2023-04-16T06:32:21.914Z,20.80
2023-04-16T06:34:49.978Z,22.30
2023-04-16T06:37:18.029Z,20.73
2023-04-16T06:39:46.074Z,23.23
2023-04-16T06:42:15.406Z,20.23
2023-04-16T06:44:44.105Z,19.77
2023-04-16T06:47:12.209Z,20.03
2023-04-16T06:49:40.515Z,19.83
2023-04-16T06:52:08.547Z,19.63
2023-04-16T06:54:36.934Z,20.07
2023-04-16T06:57:05.305Z,19.97
2023-04-16T06:59:34.642Z,19.20
2023-04-16T07:02:02.990Z,18.37
2023-04-16T07:04:31.050Z,20.70
2023-04-16T07:06:58.970Z,17.67
2023-04-16T07:09:27.654Z,19.00
2023-04-16T07:11:55.944Z,17.87
2023-04-16T07:14:23.869Z,18.00
2023-04-16T07:16:53.198Z,18.17
2023-04-16T07:19:21.269Z,17.90
2023-04-16T07:21:49.388Z,18.03
2023-04-16T07:24:17.366Z,18.07
2023-04-16T07:26:45.452Z,17.83
2023-04-16T07:29:13.540Z,17.37
2023-04-16T07:31:41.485Z,18.03
2023-04-16T07:34:10.898Z,17.77
2023-04-16T07:36:39.037Z,16.33
2023-04-16T07:39:06.973Z,16.93
2023-04-16T07:41:35.151Z,15.97
2023-04-16T07:44:03.333Z,16.10
2023-04-16T07:46:43.640Z,15.97
2023-04-16T07:49:16.692Z,16.30
2023-04-16T07:51:44.729Z,16.00
2023-04-16T07:54:12.693Z,16.00
2023-04-16T07:56:40.855Z,15.13
2023-04-16T08:01:42.760Z,14.57
2023-04-16T08:04:10.961Z,15.70
2023-04-16T08:06:40.455Z,15.07
2023-04-16T08:09:08.685Z,14.50
2023-04-16T08:11:36.886Z,15.20
2023-04-16T08:14:04.854Z,14.03
2023-04-16T08:16:32.797Z,14.50
2023-04-16T08:19:01.585Z,13.97
2023-04-16T08:21:30.688Z,13.40
2023-04-16T08:24:00.021Z,13.10
2023-04-16T08:26:28.078Z,14.00
2023-04-16T08:28:56.082Z,13.90
2023-04-16T08:31:24.163Z,14.57
2023-04-16T08:33:52.194Z,14.30
2023-04-16T08:36:20.779Z,13.17
2023-04-16T08:38:48.788Z,14.17
2023-04-16T08:41:18.108Z,13.20
2023-04-16T08:43:48.956Z,13.50
2023-04-16T08:46:18.414Z,13.57
2023-04-16T08:48:50.517Z,13.77
2023-04-16T08:51:20.420Z,13.47
2023-04-16T08:53:53.156Z,13.73
2023-04-16T08:56:24.943Z,13.67
2023-04-16T08:58:55.599Z,12.93
2023-04-16T09:01:23.710Z,12.70
2023-04-16T09:03:52.575Z,13.37
2023-04-16T09:06:20.982Z,13.13
2023-04-16T09:08:50.125Z,12.73
2023-04-16T09:11:19.492Z,12.80
2023-04-16T09:13:49.112Z,12.67
2023-04-16T09:16:17.623Z,12.87
2023-04-16T09:18:47.797Z,13.40
2023-04-16T09:21:16.426Z,13.37
2023-04-16T09:23:45.168Z,12.80
2023-04-16T09:26:13.284Z,12.93
2023-04-16T09:28:42.923Z,12.23
2023-04-16T09:31:14.913Z,12.90
2023-04-16T09:33:43.847Z,13.07
2023-04-16T09:36:12.105Z,13.07
2023-04-16T09:38:50.969Z,12.27
2023-04-16T09:41:19.342Z,12.00
2023-04-16T09:43:55.944Z,12.43
2023-04-16T09:46:26.222Z,12.93
2023-04-16T09:48:54.209Z,12.33
2023-04-16T09:51:22.154Z,12.53
2023-04-16T09:53:53.557Z,13.47
2023-04-16T09:56:25.975Z,12.97
2023-04-16T09:58:59.023Z,12.90
2023-04-16T10:01:29.103Z,12.10
2023-04-16T10:03:57.321Z,12.83
2023-04-16T10:06:27.179Z,13.40
2023-04-16T10:08:57.604Z,13.97
2023-04-16T10:11:26.215Z,13.10
2023-04-16T10:13:54.685Z,12.10
2023-04-16T10:16:24.008Z,13.00
2023-04-16T10:18:55.075Z,13.67
2023-04-16T10:21:23.909Z,13.60
2023-04-16T10:23:52.952Z,13.73
2023-04-16T10:26:21.940Z,13.90
2023-04-16T10:28:50.020Z,13.03
2023-04-16T10:31:18.745Z,13.30
2023-04-16T10:33:46.960Z,13.10
2023-04-16T10:36:17.723Z,12.57
2023-04-16T10:38:47.303Z,12.33
2023-04-16T10:41:15.582Z,13.67
2023-04-16T10:43:45.641Z,13.07
2023-04-16T10:46:21.050Z,12.33
2023-04-16T10:48:50.776Z,12.77
2023-04-16T10:51:29.455Z,11.80
2023-04-16T10:53:58.180Z,11.67
2023-04-16T10:56:27.616Z,12.27
2023-04-16T10:58:57.048Z,11.43
2023-04-16T11:01:33.068Z,12.03
2023-04-16T11:04:02.966Z,10.87
2023-04-16T11:06:32.852Z,11.60
2023-04-16T11:09:00.890Z,10.43
2023-04-16T11:11:37.264Z,9.90
2023-04-16T11:14:06.676Z,10.13
2023-04-16T11:16:34.680Z,9.27
2023-04-16T11:19:02.755Z,10.37
2023-04-16T11:21:32.650Z,10.63
2023-04-16T11:24:00.601Z,9.40
2023-04-16T11:26:30.723Z,9.03
2023-04-16T11:29:00.186Z,9.23
2023-04-16T11:31:28.288Z,9.10
2023-04-16T11:33:57.926Z,8.77
2023-04-16T11:36:27.807Z,8.33
2023-04-16T11:39:04.535Z,6.83
2023-04-16T11:41:32.873Z,6.73
2023-04-16T11:44:01.309Z,6.77
2023-04-16T11:46:40.056Z,7.87
2023-04-16T11:49:08.132Z,7.93
2023-04-16T11:51:41.111Z,7.93
2023-04-16T11:54:12.173Z,6.97
2023-04-16T11:56:46.155Z,6.97
2023-04-16T11:59:17.581Z,6.27
2023-04-16T12:01:49.182Z,5.83
2023-04-16T12:04:18.553Z,5.87
2023-04-16T12:07:11.786Z,5.57
2023-04-16T12:09:42.807Z,6.43
2023-04-16T12:12:30.423Z,5.43
2023-04-16T12:15:00.047Z,5.97
2023-04-16T12:17:28.134Z,6.33
2023-04-16T12:19:58.298Z,5.20
2023-04-16T12:22:30.275Z,5.37
2023-04-16T12:25:02.834Z,6.20
2023-04-16T12:27:48.582Z,5.60
2023-04-16T12:30:18.425Z,5.80
2023-04-16T12:32:49.618Z,5.70
2023-04-16T12:35:31.131Z,5.13
2023-04-16T12:37:59.071Z,5.17
2023-04-16T12:40:28.589Z,5.67
2023-04-16T12:42:56.652Z,6.37
2023-04-16T12:45:25.564Z,6.03
2023-04-16T12:47:53.646Z,6.60
2023-04-16T12:50:21.827Z,7.20
2023-04-16T12:52:50.029Z,6.40
2023-04-16T12:55:17.963Z,6.60
2023-04-16T12:57:48.965Z,6.63
2023-04-16T13:00:17.631Z,6.63
2023-04-16T13:02:45.784Z,9.77
2023-04-16T13:05:16.150Z,6.53
2023-04-16T13:07:44.479Z,6.40
2023-04-16T13:10:13.165Z,8.40
2023-04-16T13:12:41.271Z,6.53
2023-04-16T13:15:11.726Z,6.53
2023-04-16T13:17:39.778Z,7.13
2023-04-16T13:20:09.075Z,6.70
2023-04-16T13:22:37.095Z,7.33
2023-04-16T13:25:06.058Z,5.97
2023-04-16T13:27:34.107Z,5.93
2023-04-16T13:30:02.011Z,6.17
2023-04-16T13:32:31.938Z,9.90
2023-04-16T13:35:00.202Z,7.33
2023-04-16T13:37:28.282Z,9.07
2023-04-16T13:39:56.560Z,8.93
2023-04-16T13:42:24.622Z,7.93
2023-04-16T13:44:54.904Z,7.63
2023-04-16T13:47:23.143Z,7.73
2023-04-16T13:49:52.502Z,8.77
2023-04-16T13:52:20.609Z,7.43
2023-04-16T13:54:48.500Z,7.23
2023-04-16T13:57:20.858Z,6.97
2023-04-16T13:59:49.056Z,8.33
2023-04-16T14:02:17.139Z,7.23
2023-04-16T14:04:46.124Z,8.13
2023-04-16T14:07:17.129Z,7.77
2023-04-16T14:09:45.126Z,8.23
2023-04-16T14:12:13.082Z,8.93
2023-04-16T14:14:40.971Z,8.03
2023-04-16T14:17:09.079Z,8.57
2023-04-16T14:19:36.963Z,8.63
2023-04-16T14:22:05.538Z,7.67
2023-04-16T14:24:35.532Z,9.80
2023-04-16T14:27:04.198Z,9.67
2023-04-16T14:29:32.202Z,9.00
2023-04-16T14:32:00.719Z,9.87
2023-04-16T14:34:28.909Z,10.20
2023-04-16T14:36:56.870Z,10.80
2023-04-16T14:39:25.479Z,9.97
2023-04-16T14:41:54.923Z,10.77
2023-04-16T14:44:23.693Z,10.83
2023-04-16T14:46:51.716Z,11.47
2023-04-16T14:49:19.870Z,10.43
2023-04-16T14:51:47.946Z,10.60
2023-04-16T14:54:15.873Z,10.80
2023-04-16T14:56:44.509Z,12.13
2023-04-16T14:59:13.908Z,12.83
2023-04-16T15:01:42.319Z,11.30
2023-04-16T15:04:10.834Z,11.77
2023-04-16T15:06:39.466Z,11.83
2023-04-16T15:09:08.118Z,12.83
2023-04-16T15:11:36.412Z,13.40
2023-04-16T15:14:04.481Z,13.63
2023-04-16T15:16:33.945Z,13.80
2023-04-16T15:19:04.378Z,13.63
2023-04-16T15:21:33.070Z,15.37
2023-04-16T15:24:01.275Z,13.93
2023-04-16T15:26:29.928Z,14.43
2023-04-16T15:28:57.905Z,15.53
2023-04-16T15:31:26.355Z,16.00
2023-04-16T15:33:57.093Z,14.77
2023-04-16T15:36:25.024Z,15.50
2023-04-16T15:38:53.303Z,15.33
2023-04-16T15:41:21.758Z,14.30
2023-04-16T15:43:49.649Z,16.87
2023-04-16T15:46:17.694Z,15.47
2023-04-16T15:48:45.728Z,13.60
2023-04-16T15:51:15.067Z,14.40
2023-04-16T15:53:44.701Z,13.70
2023-04-16T15:56:12.702Z,14.23
2023-04-16T15:58:40.819Z,14.73
2023-04-16T16:01:08.892Z,14.63
2023-04-16T16:03:37.192Z,14.57
2023-04-16T16:06:05.524Z,15.73
2023-04-16T16:08:35.997Z,16.43
2023-04-16T16:11:04.114Z,15.13
2023-04-16T16:13:32.192Z,16.67
2023-04-16T16:16:00.388Z,16.73
2023-04-16T16:18:28.357Z,16.53
2023-04-16T16:20:59.407Z,17.93
2023-04-16T16:23:27.458Z,18.27
2023-04-16T16:25:56.871Z,18.33
2023-04-16T16:28:25.373Z,18.30
2023-04-16T16:30:55.529Z,18.90
2023-04-16T16:33:23.591Z,18.77
2023-04-16T16:35:51.653Z,18.13
2023-04-16T16:38:19.836Z,18.20
2023-04-16T16:40:47.788Z,17.77
2023-04-16T16:43:17.599Z,18.27
2023-04-16T16:45:46.461Z,18.40
2023-04-16T16:48:16.992Z,18.70
2023-04-16T16:50:45.203Z,18.63
2023-04-16T16:53:13.250Z,19.67
2023-04-16T16:55:41.375Z,17.97
2023-04-16T16:58:09.694Z,17.80
2023-04-16T17:00:39.034Z,18.87
2023-04-16T17:03:07.096Z,18.20
2023-04-16T17:05:35.617Z,20.17
2023-04-16T17:08:03.700Z,19.30
2023-04-16T17:10:33.450Z,18.33
2023-04-16T17:13:01.363Z,18.93
2023-04-16T17:15:29.397Z,18.53
2023-04-16T17:17:58.662Z,19.20
2023-04-16T17:20:26.592Z,18.57
2023-04-16T17:22:54.767Z,22.37
2023-04-16T17:25:22.851Z,18.50
2023-04-16T17:27:50.967Z,21.43
2023-04-16T17:30:19.076Z,19.63
2023-04-16T17:32:47.125Z,19.27
2023-04-16T17:35:16.539Z,18.87
2023-04-16T17:37:44.532Z,19.77
2023-04-16T17:40:14.423Z,19.93
2023-04-16T17:42:42.586Z,21.00
2023-04-16T17:45:10.979Z,24.27
2023-04-16T17:47:39.091Z,20.73
2023-04-16T17:50:08.864Z,19.40
2023-04-16T17:52:38.449Z,20.80
2023-04-16T17:55:07.663Z,24.03
2023-04-16T17:57:36.537Z,20.57
2023-04-16T18:00:06.416Z,21.97
2023-04-16T18:02:40.821Z,20.90
2023-04-16T18:05:09.508Z,20.13
2023-04-16T18:07:39.118Z,21.67
2023-04-16T18:10:09.251Z,22.07
2023-04-16T18:12:37.190Z,23.93
2023-04-16T18:15:06.049Z,23.80
2023-04-16T18:17:34.273Z,21.10
2023-04-16T18:20:05.363Z,24.00
2023-04-16T18:22:33.328Z,20.97
2023-04-16T18:25:03.482Z,19.90
2023-04-16T18:27:32.263Z,19.03
2023-04-16T18:30:00.491Z,20.63
2023-04-16T18:32:31.281Z,19.37
2023-04-16T18:35:02.302Z,18.17
2023-04-16T18:37:30.652Z,18.67
2023-04-16T18:39:59.082Z,19.90
2023-04-16T18:42:29.446Z,18.00
2023-04-16T18:44:59.408Z,19.13
2023-04-16T18:47:28.103Z,37.53
2023-04-16T18:49:56.853Z,19.23
2023-04-16T18:52:25.423Z,19.13
2023-04-16T18:54:56.242Z,20.20
2023-04-16T18:57:27.044Z,19.10
2023-04-16T18:59:56.413Z,18.03
2023-04-16T19:02:25.026Z,19.40
2023-04-16T19:04:52.946Z,20.43
2023-04-16T19:07:20.914Z,19.80
2023-04-16T19:09:48.777Z,19.03
2023-04-16T19:12:17.674Z,19.50
2023-04-16T19:14:45.646Z,20.83
2023-04-16T19:17:14.880Z,21.10
2023-04-16T19:19:42.841Z,21.57
2023-04-16T19:22:10.830Z,21.27
2023-04-16T19:24:39.442Z,21.13
2023-04-16T19:27:07.545Z,20.70
2023-04-16T19:29:35.553Z,19.07
2023-04-16T19:32:03.836Z,19.67
2023-04-16T19:34:33.177Z,19.93
2023-04-16T19:37:01.192Z,19.43
2023-04-16T19:39:29.088Z,19.13
2023-04-16T19:41:57.857Z,19.87
2023-04-16T19:44:27.605Z,19.03
2023-04-16T19:46:55.567Z,20.10
2023-04-16T19:49:25.158Z,21.77
2023-04-16T19:51:55.423Z,20.97
2023-04-16T19:54:24.051Z,21.27
2023-04-16T19:56:52.960Z,22.33
2023-04-16T19:59:21.739Z,21.00
2023-04-16T20:01:49.789Z,20.83
2023-04-16T20:04:18.435Z,21.33
2023-04-16T20:06:46.532Z,21.67
2023-04-16T20:09:18.506Z,22.03
2023-04-16T20:11:46.387Z,20.67
2023-04-16T20:14:14.509Z,20.00
2023-04-16T20:16:43.634Z,20.23
2023-04-16T20:19:18.455Z,20.50
2023-04-16T20:21:46.534Z,19.03
2023-04-16T20:24:15.744Z,18.73
2023-04-16T20:26:43.852Z,19.20
2023-04-16T20:29:11.799Z,18.93
2023-04-16T20:31:41.463Z,19.87
2023-04-16T20:34:09.445Z,19.87
2023-04-16T20:36:37.295Z,19.63
2023-04-16T20:39:07.096Z,18.63
2023-04-16T20:41:39.959Z,19.33
2023-04-16T20:44:10.358Z,17.87
2023-04-16T20:46:38.841Z,18.47
2023-04-16T20:49:07.549Z,18.27
2023-04-16T20:51:36.754Z,19.13
2023-04-16T20:54:08.046Z,18.77
2023-04-16T20:56:37.361Z,18.10
2023-04-16T20:59:05.532Z,17.60
2023-04-16T21:01:33.894Z,17.20
2023-04-16T21:04:02.522Z,17.03
2023-04-16T21:06:32.730Z,17.03
2023-04-16T21:09:00.635Z,15.73
2023-04-16T21:11:33.145Z,15.37
2023-04-16T21:14:02.678Z,15.03
2023-04-16T21:16:30.723Z,15.73
2023-04-16T21:18:59.505Z,14.90
2023-04-16T21:21:27.479Z,14.93
2023-04-16T21:23:55.591Z,14.90
2023-04-16T21:26:23.486Z,14.60
2023-04-16T21:28:52.287Z,14.57
2023-04-16T21:31:23.237Z,15.00
2023-04-16T21:33:51.243Z,14.53
2023-04-16T21:36:19.154Z,14.80
2023-04-16T21:38:47.165Z,14.50
2023-04-16T21:41:15.144Z,14.97
2023-04-16T21:43:43.082Z,15.03
2023-04-16T21:46:11.083Z,15.00
2023-04-16T21:48:40.282Z,14.20
2023-04-16T21:51:08.600Z,14.93
2023-04-16T21:53:36.951Z,15.93
2023-04-16T21:56:04.987Z,15.57
2023-04-16T21:58:33.055Z,15.80
2023-04-16T22:01:01.019Z,15.83
2023-04-16T22:03:31.020Z,16.23
2023-04-16T22:06:01.733Z,17.27
2023-04-16T22:08:30.120Z,17.03
2023-04-16T22:10:59.161Z,16.90
2023-04-16T22:13:27.767Z,16.83
2023-04-16T22:15:57.649Z,15.03
2023-04-16T22:18:26.349Z,16.10
2023-04-16T22:20:55.185Z,15.70
2023-04-16T22:23:25.419Z,15.90
2023-04-16T22:25:55.881Z,14.60
2023-04-16T22:28:23.987Z,14.83
2023-04-16T22:30:52.125Z,14.43
2023-04-16T22:33:20.308Z,14.27
2023-04-16T22:35:48.198Z,14.60
2023-04-16T22:38:16.463Z,14.87
2023-04-16T22:40:48.480Z,14.40
2023-04-16T22:43:17.614Z,15.67
2023-04-16T22:45:47.151Z,14.20
2023-04-16T22:48:15.439Z,13.30
2023-04-16T22:50:48.322Z,14.57
2023-04-16T22:53:16.452Z,13.43
2023-04-16T22:55:45.853Z,14.27
2023-04-16T22:58:13.748Z,12.73
2023-04-16T23:00:41.627Z,13.73
2023-04-16T23:03:09.863Z,13.13
2023-04-16T23:05:37.772Z,13.67
2023-04-16T23:08:06.009Z,13.70
2023-04-16T23:10:34.062Z,14.00
2023-04-16T23:13:03.514Z,13.37
2023-04-16T23:15:31.880Z,12.87
2023-04-16T23:17:59.896Z,14.10
2023-04-16T23:20:29.391Z,13.60
2023-04-16T23:22:57.327Z,13.83
2023-04-16T23:25:25.523Z,13.30
2023-04-16T23:27:53.386Z,13.10
2023-04-16T23:30:23.021Z,12.23
2023-04-16T23:32:50.994Z,12.40
2023-04-16T23:35:22.945Z,13.23
2023-04-16T23:37:50.912Z,14.00
2023-04-16T23:40:18.891Z,13.50
2023-04-16T23:42:46.861Z,13.37
2023-04-16T23:45:14.805Z,12.60
2023-04-16T23:47:44.472Z,13.23
2023-04-16T23:50:12.837Z,12.90
2023-04-16T23:52:40.916Z,13.13
2023-04-16T23:55:09.399Z,13.30
2023-04-16T23:57:37.302Z,12.80
